Time;durP1;ratioP1;P1;durP2;ratioP2;P2;SDS_P1;SDS_P2;PMS_P1;PMS_P2;Temp;Humidity;BMP_temperature;BMP_pressure;BME280_temperature;BME280_humidity;BME280_pressure;Samples;Min_cycle;Max_cycle;Signal;HPM_P1;HPM_P2
2022/11/02 00:00:33;;;;;;;9.18;1.50;;;12.90;99.90;;;;;;5091686;28;20469;-75
2022/11/02 00:02:59;;;;;;;9.13;1.67;;;12.90;99.90;;;;;;5095101;28;20933;-75
2022/11/02 00:05:25;;;;;;;8.47;1.70;;;12.90;99.90;;;;;;5102792;28;20411;-75
2022/11/02 00:07:54;;;;;;;9.70;2.00;;;12.90;99.90;;;;;;5092021;28;20407;-75
2022/11/02 00:10:21;;;;;;;10.07;1.55;;;12.90;99.90;;;;;;5103352;28;20418;-76
2022/11/02 00:12:47;;;;;;;10.57;1.45;;;12.90;99.90;;;;;;5116821;28;20418;-76
2022/11/02 00:15:14;;;;;;;10.20;1.80;;;12.90;99.90;;;;;;5110248;28;20446;-76
2022/11/02 00:17:42;;;;;;;9.95;1.40;;;12.90;99.90;;;;;;5128435;28;20419;-76
2022/11/02 00:20:11;;;;;;;8.27;1.33;;;12.90;99.90;;;;;;5109186;28;20844;-76
2022/11/02 00:22:37;;;;;;;11.57;1.70;;;12.80;99.90;;;;;;5129030;28;20426;-76
2022/11/02 00:25:05;;;;;;;11.88;1.73;;;12.80;99.90;;;;;;5126132;28;20403;-75
2022/11/02 00:27:31;;;;;;;6.55;1.20;;;12.80;99.90;;;;;;5096957;28;20400;-75
2022/11/02 00:30:00;;;;;;;8.90;1.48;;;12.80;99.90;;;;;;5125017;28;20952;-76
2022/11/02 00:32:26;;;;;;;9.60;1.45;;;12.80;99.90;;;;;;5107260;28;20415;-76
2022/11/02 00:34:52;;;;;;;9.37;1.70;;;12.70;99.90;;;;;;5125759;28;20407;-76
2022/11/02 00:37:18;;;;;;;9.20;1.60;;;12.70;99.90;;;;;;5129188;28;20398;-75
2022/11/02 00:39:44;;;;;;;11.50;1.30;;;12.70;99.90;;;;;;5128089;28;21911;-75
2022/11/02 00:42:10;;;;;;;8.13;1.30;;;12.60;99.90;;;;;;5128726;28;20421;-75
2022/11/02 00:44:35;;;;;;;9.70;1.25;;;12.60;99.90;;;;;;5127906;28;20895;-75
2022/11/02 00:47:01;;;;;;;7.75;1.25;;;12.50;99.90;;;;;;5109715;28;20398;-76
2022/11/02 00:49:27;;;;;;;7.63;1.00;;;12.50;99.90;;;;;;5111988;28;20400;-75
2022/11/02 00:51:53;;;;;;;8.63;1.27;;;12.50;99.90;;;;;;5097455;28;20433;-75
2022/11/02 00:54:18;;;;;;;9.20;1.25;;;12.40;99.90;;;;;;5124966;28;20409;-74
2022/11/02 00:56:44;;;;;;;10.33;1.10;;;12.30;99.90;;;;;;5108790;28;20407;-75
2022/11/02 00:59:10;;;;;;;5.68;1.00;;;12.10;99.90;;;;;;5129583;27;20764;-74
2022/11/02 01:01:35;;;;;;;7.50;1.10;;;12.00;99.90;;;;;;5131949;27;20472;-74
2022/11/02 01:04:01;;;;;;;5.28;1.27;;;11.90;99.90;;;;;;5115312;27;20427;-74
2022/11/02 01:06:27;;;;;;;6.22;0.93;;;11.80;99.90;;;;;;5104592;27;20399;-74
2022/11/02 01:08:54;;;;;;;6.50;1.00;;;11.80;99.90;;;;;;5115051;27;20414;-74
2022/11/02 01:11:22;;;;;;;6.70;0.95;;;11.70;99.90;;;;;;5128940;27;20489;-74
2022/11/02 01:13:51;;;;;;;4.13;0.70;;;11.70;99.90;;;;;;5095659;28;20443;-74
2022/11/02 01:16:17;;;;;;;8.00;1.00;;;11.70;99.90;;;;;;5101033;28;20757;-74
2022/11/02 01:18:43;;;;;;;6.57;0.90;;;11.60;99.90;;;;;;5110039;28;20910;-74
2022/11/02 01:21:08;;;;;;;4.07;0.60;;;11.60;99.90;;;;;;5122186;27;20432;-75
2022/11/02 01:23:35;;;;;;;8.07;1.00;;;11.50;99.90;;;;;;5131787;27;20422;-75
2022/11/02 01:26:05;;;;;;;4.97;0.80;;;11.50;99.90;;;;;;5101003;28;20403;-74
2022/11/02 01:28:31;;;;;;;4.18;0.60;;;11.50;99.90;;;;;;5127163;27;20450;-74
2022/11/02 01:30:57;;;;;;;4.85;0.75;;;11.50;99.90;;;;;;5110574;28;20396;-74
2022/11/02 01:33:24;;;;;;;4.97;0.40;;;11.40;99.90;;;;;;5099544;28;20471;-74
2022/11/02 01:35:50;;;;;;;4.10;0.60;;;11.40;99.90;;;;;;5111591;27;20403;-74
2022/11/02 01:38:15;;;;;;;10.53;0.70;;;11.30;99.90;;;;;;5106639;28;20769;-74
2022/11/02 01:40:41;;;;;;;3.05;0.43;;;11.30;99.90;;;;;;5111731;27;20407;-74
2022/11/02 01:43:34;;;;;;;2.97;0.40;;;11.30;99.90;;;;;;5116548;27;20775;-74
2022/11/02 01:46:09;;;;;;;3.10;0.40;;;11.30;99.90;;;;;;5111690;27;20517;-74
2022/11/02 01:48:44;;;;;;;1.77;0.30;;;11.30;99.90;;;;;;5121708;27;20999;-74
2022/11/02 01:51:30;;;;;;;1.87;0.37;;;11.20;99.90;;;;;;5125538;27;20407;-75
2022/11/02 01:53:59;;;;;;;1.75;0.30;;;11.20;99.90;;;;;;5104585;27;20423;-74
2022/11/02 01:56:30;;;;;;;3.67;0.40;;;11.20;99.90;;;;;;5095930;27;20403;-74
2022/11/02 01:58:59;;;;;;;2.40;0.40;;;11.10;99.90;;;;;;5130974;27;20455;-74
2022/11/02 02:01:25;;;;;;;1.95;0.30;;;11.10;99.90;;;;;;5124892;27;21063;-74
2022/11/02 02:03:52;;;;;;;2.33;0.50;;;11.00;99.90;;;;;;5127060;27;20459;-75
2022/11/02 02:06:18;;;;;;;2.80;0.40;;;11.00;99.90;;;;;;5106314;28;20401;-74
2022/11/02 02:08:49;;;;;;;5.30;0.43;;;11.00;99.90;;;;;;5125616;27;20398;-74
2022/11/02 02:11:29;;;;;;;2.90;0.30;;;11.00;99.90;;;;;;5112151;27;20404;-74
2022/11/02 02:14:16;;;;;;;3.65;0.52;;;11.00;99.90;;;;;;5108525;28;20412;-74
2022/11/02 02:16:45;;;;;;;2.80;0.40;;;11.00;99.90;;;;;;5124301;27;20430;-75
2022/11/02 02:19:47;;;;;;;5.15;0.50;;;11.00;99.90;;;;;;5130961;27;20904;-74
2022/11/02 02:22:51;;;;;;;2.97;0.50;;;11.00;99.90;;;;;;5130997;27;20490;-75
2022/11/02 02:25:35;;;;;;;3.90;0.50;;;11.00;99.90;;;;;;5007269;28;20428;-75
2022/11/02 02:28:23;;;;;;;4.72;0.82;;;11.00;99.90;;;;;;5097122;27;20415;-75
2022/11/02 02:31:03;;;;;;;4.50;0.50;;;11.00;99.90;;;;;;5129907;27;20411;-74
2022/11/02 02:33:38;;;;;;;3.20;0.70;;;11.10;99.90;;;;;;5123379;27;20459;-74
2022/11/02 02:36:12;;;;;;;3.80;0.70;;;11.00;99.90;;;;;;5130707;27;20451;-74
2022/11/02 02:39:15;;;;;;;6.28;0.70;;;11.00;99.90;;;;;;5130194;27;20415;-75
2022/11/02 02:41:47;;;;;;;4.57;0.80;;;11.00;99.90;;;;;;5026186;28;20464;-75
2022/11/02 02:44:17;;;;;;;5.40;0.88;;;11.00;99.90;;;;;;5124176;27;20489;-75
2022/11/02 02:47:10;;;;;;;5.55;0.90;;;11.00;99.90;;;;;;5092056;28;20484;-75
2022/11/02 02:49:44;;;;;;;5.18;1.05;;;11.00;99.90;;;;;;5097241;28;20479;-75
2022/11/02 02:52:11;;;;;;;5.35;1.50;;;11.00;99.90;;;;;;5122794;27;20407;-75
2022/11/02 02:54:41;;;;;;;10.10;1.63;;;10.90;99.90;;;;;;5105355;28;20453;-75
2022/11/02 02:57:14;;;;;;;9.82;1.65;;;10.90;99.90;;;;;;5123567;27;20413;-75
2022/11/02 02:59:42;;;;;;;9.83;1.83;;;10.90;99.90;;;;;;5082183;27;20407;-75
2022/11/02 03:02:19;;;;;;;9.32;2.25;;;10.90;99.90;;;;;;5093506;27;20414;-75
2022/11/02 03:04:45;;;;;;;8.60;1.88;;;10.90;99.90;;;;;;5110484;27;20795;-75
2022/11/02 03:07:14;;;;;;;10.30;2.17;;;11.00;99.90;;;;;;5108863;27;20402;-75
2022/11/02 03:09:45;;;;;;;8.30;1.88;;;11.00;99.90;;;;;;5112792;27;20421;-75
2022/11/02 03:12:23;;;;;;;12.07;2.15;;;11.00;99.90;;;;;;5111386;27;20896;-75
2022/11/02 03:15:10;;;;;;;7.82;1.85;;;11.10;99.90;;;;;;5108581;28;20420;-75
2022/11/02 03:17:50;;;;;;;8.70;2.05;;;11.10;99.90;;;;;;5117152;27;20921;-75
2022/11/02 03:20:26;;;;;;;10.65;1.58;;;11.10;99.90;;;;;;5129073;27;20765;-75
2022/11/02 03:22:57;;;;;;;6.93;1.45;;;11.20;99.90;;;;;;5111639;27;20426;-75
2022/11/02 03:25:28;;;;;;;6.97;1.20;;;11.20;99.90;;;;;;5116357;27;20406;-75
2022/11/02 03:28:23;;;;;;;7.55;1.20;;;11.20;99.90;;;;;;5108016;28;20932;-75
2022/11/02 03:30:58;;;;;;;5.10;1.00;;;11.20;99.90;;;;;;5096827;27;20407;-75
2022/11/02 03:33:34;;;;;;;8.15;1.50;;;11.20;99.90;;;;;;5099372;28;20517;-75
2022/11/02 03:36:11;;;;;;;7.35;1.35;;;11.20;99.90;;;;;;5122868;27;20405;-74
2022/11/02 03:38:42;;;;;;;5.53;0.88;;;11.20;99.90;;;;;;5109488;28;20427;-75
2022/11/02 03:41:10;;;;;;;5.47;1.00;;;11.20;99.90;;;;;;5125400;27;20454;-75
2022/11/02 03:43:38;;;;;;;5.88;0.80;;;11.20;99.90;;;;;;5128902;27;20426;-75
2022/11/02 03:46:07;;;;;;;4.53;0.90;;;11.10;99.90;;;;;;5098850;28;20906;-75
2022/11/02 03:48:46;;;;;;;4.38;0.68;;;11.10;99.90;;;;;;5103674;28;20494;-75
2022/11/02 03:51:16;;;;;;;5.03;0.80;;;11.10;99.90;;;;;;5122498;27;20402;-75
2022/11/02 03:53:50;;;;;;;5.70;0.82;;;11.10;99.90;;;;;;5116125;27;20426;-75
2022/11/02 03:56:28;;;;;;;4.63;0.80;;;11.00;99.90;;;;;;5115412;27;20758;-75
2022/11/02 03:58:55;;;;;;;3.60;0.60;;;11.10;99.90;;;;;;5107848;28;20400;-75
2022/11/02 04:01:20;;;;;;;4.90;0.65;;;11.00;99.90;;;;;;5107762;28;20403;-75
2022/11/02 04:03:46;;;;;;;6.78;0.70;;;11.10;99.90;;;;;;5093168;28;20505;-75
2022/11/02 04:06:12;;;;;;;3.80;0.83;;;11.00;99.90;;;;;;5116244;28;20447;-76
2022/11/02 04:08:44;;;;;;;4.63;0.70;;;11.00;99.90;;;;;;5077597;28;20443;-75
2022/11/02 04:16:39;;;;;;;7.80;1.00;;;11.00;99.90;;;;;;5108299;28;20428;-74
2022/11/02 04:27:18;;;;;;;5.57;0.73;;;11.00;99.90;;;;;;5096006;28;20484;-75
2022/11/02 04:29:43;;;;;;;8.33;1.30;;;10.90;99.90;;;;;;5107514;28;20400;-75
2022/11/02 04:32:09;;;;;;;6.80;0.87;;;10.90;99.90;;;;;;5110482;28;20774;-75
2022/11/02 04:34:35;;;;;;;8.85;1.08;;;10.90;99.90;;;;;;5114717;27;20495;-75
2022/11/02 04:38:39;;;;;;;7.05;0.88;;;10.90;99.90;;;;;;5126887;27;20396;-75
2022/11/02 04:39:46;;;;;;;7.53;1.13;;;10.90;99.90;;;;;;5123520;27;20414;-75
2022/11/02 04:42:12;;;;;;;5.50;0.98;;;10.90;99.90;;;;;;5093597;28;20672;-75
2022/11/02 04:44:38;;;;;;;7.43;1.00;;;11.00;99.90;;;;;;5116744;27;20411;-75
2022/11/02 04:47:03;;;;;;;11.30;1.27;;;11.00;99.90;;;;;;5132838;27;20428;-75
2022/11/02 04:49:29;;;;;;;7.15;1.10;;;11.00;99.90;;;;;;5094604;27;20407;-75
2022/11/02 04:51:55;;;;;;;6.03;0.73;;;11.10;99.90;;;;;;5114588;27;20410;-75
2022/11/02 04:54:20;;;;;;;8.23;1.05;;;11.10;99.90;;;;;;5112999;27;20583;-76
2022/11/02 04:56:46;;;;;;;11.27;1.10;;;11.20;99.90;;;;;;5115528;27;20408;-76
2022/11/02 04:59:12;;;;;;;8.57;0.98;;;11.20;99.90;;;;;;5094976;27;20419;-74
2022/11/02 05:01:38;;;;;;;8.13;1.00;;;11.20;99.90;;;;;;5132390;27;20915;-74
2022/11/02 05:04:04;;;;;;;7.37;1.30;;;11.20;99.90;;;;;;5113564;27;20430;-73
2022/11/02 05:06:29;;;;;;;8.38;1.23;;;11.20;99.90;;;;;;5110169;28;20443;-74
2022/11/02 05:08:55;;;;;;;8.80;1.60;;;11.20;99.90;;;;;;5110908;27;20397;-73
2022/11/02 05:11:21;;;;;;;7.83;1.30;;;11.10;99.90;;;;;;5124891;27;20400;-73
2022/11/02 05:13:46;;;;;;;5.47;1.00;;;11.10;99.90;;;;;;5094447;27;20443;-73
2022/11/02 05:16:14;;;;;;;8.57;1.03;;;11.10;99.90;;;;;;5125087;27;20400;-73
2022/11/02 05:18:40;;;;;;;8.40;1.45;;;11.00;99.90;;;;;;5126904;27;20407;-74
2022/11/02 05:21:06;;;;;;;8.82;1.10;;;11.00;99.90;;;;;;5130528;27;20402;-74
2022/11/02 05:23:32;;;;;;;8.68;1.02;;;11.00;99.90;;;;;;5111340;27;20550;-74
2022/11/02 05:25:59;;;;;;;5.65;0.98;;;10.90;99.90;;;;;;5129787;27;20881;-73
2022/11/02 05:28:26;;;;;;;9.00;1.50;;;10.90;99.90;;;;;;5083390;27;20770;-73
2022/11/02 05:30:53;;;;;;;8.30;1.40;;;11.00;99.90;;;;;;5127395;27;20419;-73
2022/11/02 05:33:19;;;;;;;9.07;1.40;;;11.00;99.90;;;;;;5129879;27;20454;-74
2022/11/02 05:35:45;;;;;;;8.85;1.17;;;11.00;99.90;;;;;;5120671;27;20764;-74
2022/11/02 05:38:11;;;;;;;9.20;1.23;;;11.00;99.90;;;;;;5130957;27;20494;-72
2022/11/02 05:40:39;;;;;;;9.38;1.30;;;11.00;99.90;;;;;;5131694;27;20410;-73
2022/11/02 05:43:06;;;;;;;6.90;1.40;;;11.00;99.90;;;;;;5093736;27;20428;-74
2022/11/02 05:45:32;;;;;;;7.93;1.45;;;11.00;99.90;;;;;;5122357;27;20400;-74
2022/11/02 05:48:02;;;;;;;7.57;1.13;;;11.00;99.90;;;;;;5078828;27;20430;-74
2022/11/02 05:50:28;;;;;;;7.75;1.65;;;10.90;99.90;;;;;;5126106;27;20463;-74
2022/11/02 05:52:54;;;;;;;9.50;1.60;;;10.90;99.90;;;;;;5115615;27;20403;-74
2022/11/02 05:55:20;;;;;;;9.73;1.58;;;10.90;99.90;;;;;;5088789;27;20896;-74
2022/11/02 05:57:53;;;;;;;8.40;1.67;;;10.80;99.90;;;;;;5097110;27;20405;-74
2022/11/02 06:00:20;;;;;;;7.43;1.38;;;10.80;99.90;;;;;;5091719;28;20419;-74
2022/11/02 06:02:47;;;;;;;8.82;1.85;;;10.80;99.90;;;;;;5107486;27;20422;-73
2022/11/02 06:05:13;;;;;;;8.40;1.90;;;10.80;99.90;;;;;;5101993;28;20446;-74
2022/11/02 06:07:38;;;;;;;10.60;1.75;;;10.70;99.90;;;;;;5085225;27;20498;-74
2022/11/02 06:10:05;;;;;;;9.43;2.63;;;10.70;99.90;;;;;;5109790;28;20412;-73
2022/11/02 06:12:30;;;;;;;11.45;2.22;;;10.70;99.90;;;;;;5108416;28;20804;-73
2022/11/02 06:14:56;;;;;;;8.33;1.77;;;10.60;99.90;;;;;;5112417;27;20394;-74
2022/11/02 06:17:21;;;;;;;10.30;1.75;;;10.70;99.90;;;;;;5095830;28;20478;-74
2022/11/02 06:19:47;;;;;;;9.73;1.57;;;10.60;99.90;;;;;;5120394;27;20440;-74
2022/11/02 06:22:13;;;;;;;9.93;1.80;;;10.70;99.90;;;;;;5111858;27;20841;-74
2022/11/02 06:24:38;;;;;;;10.43;2.20;;;10.70;99.90;;;;;;5120893;27;20403;-74
2022/11/02 06:27:04;;;;;;;10.70;1.60;;;10.80;99.90;;;;;;5108772;27;20518;-74
2022/11/02 06:29:30;;;;;;;9.10;1.63;;;10.80;99.90;;;;;;5108041;27;20875;-75
2022/11/02 06:31:55;;;;;;;11.82;1.63;;;10.90;99.90;;;;;;5123888;27;20404;-76
2022/11/02 06:34:21;;;;;;;10.20;2.23;;;10.90;99.90;;;;;;5123550;27;20403;-75
2022/11/02 06:36:46;;;;;;;13.07;2.15;;;10.90;99.90;;;;;;5106945;28;20400;-76
2022/11/02 06:39:12;;;;;;;8.27;1.60;;;11.00;99.90;;;;;;5117343;27;20399;-75
2022/11/02 06:41:38;;;;;;;10.30;1.58;;;11.00;99.90;;;;;;5101376;28;20780;-76
2022/11/02 06:44:03;;;;;;;7.47;1.37;;;10.90;99.90;;;;;;5078116;28;20936;-76
2022/11/02 06:46:29;;;;;;;8.57;1.55;;;11.00;99.90;;;;;;5094748;28;20403;-76
2022/11/02 06:48:54;;;;;;;10.13;1.70;;;11.00;99.90;;;;;;5097903;28;20414;-76
2022/11/02 06:51:20;;;;;;;11.43;1.90;;;11.00;99.90;;;;;;5107190;28;20412;-76
2022/11/02 06:53:46;;;;;;;10.83;1.77;;;11.00;99.90;;;;;;5098229;28;20466;-76
2022/11/02 06:56:11;;;;;;;11.73;2.10;;;11.00;99.90;;;;;;5103080;28;20404;-75
2022/11/02 06:58:37;;;;;;;14.37;2.13;;;11.00;99.90;;;;;;5090006;28;20406;-76
2022/11/02 07:01:07;;;;;;;12.32;1.92;;;11.00;99.90;;;;;;5105990;28;21027;-75
2022/11/02 07:03:33;;;;;;;13.18;2.47;;;11.00;99.90;;;;;;5109877;28;20436;-75
2022/11/02 07:05:59;;;;;;;12.38;1.65;;;11.00;99.90;;;;;;5108505;28;20392;-75
2022/11/02 07:08:26;;;;;;;10.13;1.80;;;11.00;99.90;;;;;;5110186;28;20424;-73
2022/11/02 07:10:51;;;;;;;11.57;1.80;;;10.90;99.90;;;;;;5106598;28;20407;-74
2022/11/02 07:13:17;;;;;;;11.65;1.90;;;10.90;99.90;;;;;;5102811;28;20400;-74
2022/11/02 07:15:43;;;;;;;12.50;1.80;;;10.90;99.90;;;;;;5108393;28;20469;-74
2022/11/02 07:18:08;;;;;;;8.55;1.75;;;10.80;99.90;;;;;;5107705;28;20847;-73
2022/11/02 07:20:34;;;;;;;9.00;1.63;;;10.90;99.90;;;;;;5090000;28;20407;-74
2022/11/02 07:23:01;;;;;;;10.27;1.50;;;10.80;99.90;;;;;;5093901;28;20422;-73
2022/11/02 07:25:32;;;;;;;12.40;1.75;;;10.80;99.90;;;;;;5099639;28;20481;-74
2022/11/02 07:27:59;;;;;;;10.37;2.00;;;10.90;99.90;;;;;;5086916;28;20430;-74
2022/11/02 07:30:25;;;;;;;14.25;2.03;;;10.90;99.90;;;;;;5105313;28;20527;-74
2022/11/02 07:32:51;;;;;;;8.57;1.55;;;11.00;99.90;;;;;;5095971;28;20915;-74
2022/11/02 07:35:17;;;;;;;11.27;1.73;;;11.00;99.90;;;;;;5101278;28;20406;-74
2022/11/02 07:37:43;;;;;;;11.88;1.77;;;11.00;99.90;;;;;;5098402;28;20428;-74
2022/11/02 07:40:11;;;;;;;11.13;1.70;;;11.00;99.90;;;;;;5100368;27;20482;-74
2022/11/02 07:42:44;;;;;;;11.00;1.40;;;11.00;99.90;;;;;;5128301;27;20446;-74
2022/11/02 07:45:10;;;;;;;11.45;2.03;;;11.10;99.90;;;;;;5128901;27;20395;-74
2022/11/02 07:47:46;;;;;;;9.63;1.50;;;11.10;99.90;;;;;;5091115;28;20796;-74
2022/11/02 07:50:13;;;;;;;8.30;1.83;;;11.10;99.90;;;;;;5088829;27;20395;-74
2022/11/02 07:52:43;;;;;;;8.38;1.67;;;11.20;99.90;;;;;;5129566;27;20406;-74
2022/11/02 07:55:09;;;;;;;12.13;1.90;;;11.10;99.90;;;;;;5121453;27;20441;-74
2022/11/02 07:57:34;;;;;;;9.37;1.67;;;11.10;99.90;;;;;;5110071;28;20404;-74
2022/11/02 08:00:00;;;;;;;11.40;1.70;;;11.20;99.90;;;;;;5129441;27;20764;-74
2022/11/02 08:02:26;;;;;;;10.67;1.80;;;11.20;99.90;;;;;;5128591;28;20407;-74
2022/11/02 08:04:51;;;;;;;10.55;1.83;;;11.20;99.90;;;;;;5115531;27;20502;-74
2022/11/02 08:07:17;;;;;;;10.97;1.60;;;11.20;99.90;;;;;;5108270;28;20400;-74
2022/11/02 08:09:42;;;;;;;11.23;1.30;;;11.10;99.90;;;;;;5103272;28;20396;-74
2022/11/02 08:12:08;;;;;;;8.27;1.58;;;11.10;99.90;;;;;;5123241;28;20492;-74
2022/11/02 08:14:33;;;;;;;11.70;1.40;;;11.10;99.90;;;;;;5129060;28;20395;-74
2022/11/02 08:16:59;;;;;;;9.70;1.45;;;11.00;99.90;;;;;;5128900;28;20410;-74
2022/11/02 08:19:25;;;;;;;6.60;1.17;;;11.00;99.90;;;;;;5110459;28;20490;-74
2022/11/02 08:21:50;;;;;;;8.82;1.20;;;11.10;99.90;;;;;;5128719;28;20556;-74
2022/11/02 08:24:16;;;;;;;7.27;1.37;;;11.20;99.90;;;;;;5115849;28;21081;-74
2022/11/02 08:26:41;;;;;;;6.18;1.15;;;11.30;99.90;;;;;;5112707;28;20429;-74
2022/11/02 08:29:07;;;;;;;6.90;0.90;;;11.30;99.90;;;;;;5124321;28;21206;-74
2022/11/02 08:31:32;;;;;;;5.45;0.60;;;11.40;99.90;;;;;;5129084;28;20922;-74
2022/11/02 08:33:58;;;;;;;5.87;0.83;;;11.60;99.90;;;;;;5120237;28;20400;-74
2022/11/02 08:36:24;;;;;;;5.03;0.75;;;11.70;99.90;;;;;;5100262;28;20982;-74
2022/11/02 08:38:49;;;;;;;6.13;0.90;;;11.80;99.90;;;;;;5117346;28;20406;-74
2022/11/02 08:41:15;;;;;;;6.73;0.73;;;11.90;99.90;;;;;;5102516;28;20476;-74
2022/11/02 08:43:40;;;;;;;5.67;0.93;;;11.90;99.90;;;;;;5114830;28;20519;-74
2022/11/02 08:46:06;;;;;;;8.43;1.10;;;12.00;99.90;;;;;;5128661;28;20399;-74
2022/11/02 08:48:32;;;;;;;5.83;0.90;;;12.10;99.90;;;;;;5128379;28;20418;-74
2022/11/02 08:50:57;;;;;;;5.60;1.10;;;12.20;99.90;;;;;;5110320;28;20402;-74
2022/11/02 08:53:23;;;;;;;10.30;1.63;;;12.30;99.90;;;;;;5078506;28;20400;-74
2022/11/02 08:55:49;;;;;;;8.27;1.05;;;12.40;99.90;;;;;;5106841;28;20414;-74
2022/11/02 08:58:14;;;;;;;5.63;0.67;;;12.50;99.90;;;;;;5102696;28;20407;-75
2022/11/02 09:00:40;;;;;;;5.95;0.85;;;12.50;99.90;;;;;;5121145;28;20391;-74
2022/11/02 09:03:11;;;;;;;7.40;1.00;;;12.60;99.90;;;;;;5093445;28;20510;-74
2022/11/02 09:05:46;;;;;;;7.40;0.90;;;12.60;99.90;;;;;;5106044;28;20437;-74
2022/11/02 09:08:19;;;;;;;7.05;1.15;;;12.60;99.90;;;;;;5106455;28;20404;-74
2022/11/02 09:10:48;;;;;;;8.07;1.10;;;12.60;99.90;;;;;;5089909;28;20418;-74
2022/11/02 09:13:17;;;;;;;6.18;1.00;;;12.60;99.90;;;;;;5124618;28;20399;-74
2022/11/02 09:15:42;;;;;;;8.38;1.05;;;12.60;99.90;;;;;;5109057;28;20463;-74
2022/11/02 09:18:09;;;;;;;6.78;1.08;;;12.50;99.90;;;;;;5110744;27;20398;-74
2022/11/02 09:20:36;;;;;;;8.88;1.35;;;12.50;99.90;;;;;;5093362;27;20407;-74
2022/11/02 09:23:01;;;;;;;7.55;0.80;;;12.60;99.90;;;;;;5101149;28;20424;-74
2022/11/02 09:25:27;;;;;;;6.57;1.10;;;12.60;99.90;;;;;;5112886;27;20779;-74
2022/11/02 09:27:54;;;;;;;9.13;0.98;;;12.80;99.90;;;;;;5131548;27;20441;-74
2022/11/02 09:30:21;;;;;;;9.55;1.17;;;12.80;99.90;;;;;;5112435;27;20430;-74
2022/11/02 09:32:58;;;;;;;9.40;1.30;;;12.80;99.90;;;;;;5110669;27;20506;-74
2022/11/02 09:35:25;;;;;;;7.60;1.10;;;12.80;99.90;;;;;;5097443;28;20419;-74
2022/11/02 09:37:51;;;;;;;8.55;1.10;;;12.80;99.90;;;;;;5077373;28;20492;-75
2022/11/02 09:40:24;;;;;;;6.47;1.00;;;13.30;99.90;;;;;;5100044;27;20489;-74
2022/11/02 09:43:16;;;;;;;9.03;1.30;;;13.90;99.90;;;;;;5109823;27;20435;-75
2022/11/02 09:45:57;;;;;;;9.25;1.23;;;14.80;99.90;;;;;;5104330;27;20496;-75
2022/11/02 09:48:36;;;;;;;6.17;0.97;;;15.70;99.90;;;;;;5130186;27;21018;-74
2022/11/02 09:51:10;;;;;;;10.10;1.60;;;16.30;99.90;;;;;;5081926;28;20417;-75
2022/11/02 09:54:17;;;;;;;9.07;1.47;;;16.80;99.90;;;;;;5076694;28;20419;-75
2022/11/02 09:56:43;;;;;;;8.63;1.10;;;17.10;99.90;;;;;;5074008;28;20412;-75
2022/11/02 09:59:18;;;;;;;11.32;1.30;;;16.90;99.90;;;;;;5098455;27;20404;-75
2022/11/02 10:01:56;;;;;;;9.50;1.57;;;16.70;99.90;;;;;;5128655;27;20456;-75
2022/11/02 10:04:37;;;;;;;7.30;1.60;;;16.60;99.90;;;;;;5095263;28;20433;-75
2022/11/02 10:07:15;;;;;;;8.52;1.73;;;16.20;99.90;;;;;;5127023;27;20474;-75
2022/11/02 10:09:56;;;;;;;10.77;1.83;;;16.20;99.90;;;;;;5116075;27;20413;-74
2022/11/02 10:12:36;;;;;;;12.02;1.38;;;16.30;99.90;;;;;;5111914;27;20468;-73
2022/11/02 10:15:08;;;;;;;9.25;1.58;;;16.40;99.90;;;;;;5083357;28;20405;-74
2022/11/02 10:17:37;;;;;;;14.40;2.05;;;15.90;99.90;;;;;;5128123;27;20951;-74
2022/11/02 10:20:24;;;;;;;9.45;1.65;;;15.30;99.90;;;;;;5130474;27;20415;-74
2022/11/02 10:22:49;;;;;;;10.93;1.60;;;14.80;99.90;;;;;;5109166;28;20424;-74
2022/11/02 10:25:16;;;;;;;7.47;1.30;;;15.10;99.90;;;;;;5126029;27;20687;-74
2022/11/02 10:27:44;;;;;;;12.20;1.65;;;15.90;99.90;;;;;;5131495;27;20822;-75
2022/11/02 10:30:19;;;;;;;8.55;1.55;;;16.80;99.90;;;;;;5127121;27;20482;-74
2022/11/02 10:32:49;;;;;;;9.07;1.48;;;17.50;99.90;;;;;;5121803;27;20399;-75
2022/11/02 10:35:20;;;;;;;11.70;1.80;;;17.50;99.90;;;;;;5112234;27;20406;-74
2022/11/02 10:37:51;;;;;;;9.98;1.40;;;17.00;99.90;;;;;;5126182;27;20488;-75
2022/11/02 10:40:37;;;;;;;7.88;1.65;;;17.10;99.90;;;;;;5115574;27;20402;-74
2022/11/02 10:43:25;;;;;;;7.23;1.50;;;17.60;99.90;;;;;;5109636;27;20424;-75
2022/11/02 10:46:03;;;;;;;6.88;1.20;;;18.30;99.90;;;;;;5130897;27;20514;-75
2022/11/02 10:48:38;;;;;;;6.78;1.23;;;18.70;99.90;;;;;;5082065;27;20426;-75
2022/11/02 10:51:09;;;;;;;6.00;0.93;;;19.00;99.90;;;;;;5130456;27;20897;-74
2022/11/02 10:53:40;;;;;;;8.63;1.42;;;19.50;99.90;;;;;;5091339;28;20770;-75
2022/11/02 10:56:28;;;;;;;8.32;1.27;;;19.90;99.90;;;;;;5111548;27;20507;-74
2022/11/02 10:59:12;;;;;;;7.47;1.33;;;20.40;99.90;;;;;;5091861;28;20411;-75
2022/11/02 11:02:03;;;;;;;7.78;1.17;;;20.50;99.20;;;;;;5086240;28;20416;-75
2022/11/02 11:04:30;;;;;;;6.95;1.30;;;20.40;97.60;;;;;;5109444;28;20439;-74
2022/11/02 11:07:02;;;;;;;10.38;1.58;;;20.30;96.80;;;;;;5099761;28;20419;-74
2022/11/02 11:09:35;;;;;;;6.95;1.10;;;20.50;98.20;;;;;;5080405;28;20420;-74
2022/11/02 11:12:02;;;;;;;6.93;1.10;;;20.80;94.30;;;;;;5107640;28;20488;-74
2022/11/02 11:14:45;;;;;;;6.57;1.10;;;21.00;98.20;;;;;;5129774;27;20402;-75
2022/11/02 11:17:20;;;;;;;7.25;1.20;;;21.20;97.00;;;;;;5123872;27;20435;-75
2022/11/02 11:19:57;;;;;;;7.67;1.40;;;21.30;95.20;;;;;;5090888;28;20407;-74
2022/11/02 11:22:27;;;;;;;9.52;1.50;;;21.30;95.30;;;;;;5127648;27;20402;-75
2022/11/02 11:25:19;;;;;;;9.07;1.42;;;20.80;93.80;;;;;;5110802;27;20418;-75
2022/11/02 11:27:49;;;;;;;9.02;1.35;;;19.60;93.90;;;;;;5120344;27;20487;-74
2022/11/02 11:30:30;;;;;;;10.35;1.55;;;19.00;95.60;;;;;;5107054;27;20826;-75
2022/11/02 11:32:58;;;;;;;9.55;1.35;;;19.10;96.30;;;;;;5110071;27;20486;-74
2022/11/02 11:35:30;;;;;;;8.02;1.23;;;18.90;94.70;;;;;;5106608;28;20404;-74
2022/11/02 11:38:00;;;;;;;10.13;1.40;;;18.40;96.20;;;;;;5122458;27;20980;-75
2022/11/02 11:40:30;;;;;;;9.20;1.20;;;17.80;97.60;;;;;;5127956;27;20425;-75
2022/11/02 11:42:56;;;;;;;6.20;0.95;;;17.50;97.90;;;;;;5116000;27;20420;-74
2022/11/02 11:45:25;;;;;;;7.75;1.30;;;17.10;98.50;;;;;;5109230;27;20409;-74
2022/11/02 11:47:54;;;;;;;8.07;1.25;;;16.70;99.90;;;;;;5112460;27;20484;-74
2022/11/02 11:50:19;;;;;;;7.63;1.40;;;16.30;99.60;;;;;;5106246;27;20498;-74
2022/11/02 11:52:45;;;;;;;6.30;1.10;;;16.00;99.80;;;;;;5126315;27;20480;-74
2022/11/02 11:55:23;;;;;;;9.05;1.52;;;15.80;99.90;;;;;;5128154;27;20768;-74
2022/11/02 11:58:20;;;;;;;7.70;1.00;;;15.60;99.90;;;;;;5100635;27;20480;-74
2022/11/02 12:01:04;;;;;;;8.38;1.30;;;15.50;99.90;;;;;;5108587;28;20434;-74
2022/11/02 12:03:30;;;;;;;8.95;1.88;;;15.20;99.90;;;;;;5107902;28;20933;-74
2022/11/02 12:06:08;;;;;;;9.77;1.20;;;15.00;99.90;;;;;;5093261;28;20395;-74
2022/11/02 12:08:51;;;;;;;8.40;1.48;;;14.90;99.90;;;;;;5116288;28;20415;-75
2022/11/02 12:11:48;;;;;;;10.05;1.48;;;14.60;99.90;;;;;;5092241;28;20410;-74
2022/11/02 12:14:26;;;;;;;7.75;1.38;;;14.40;99.90;;;;;;5128055;28;20446;-74
2022/11/02 12:17:16;;;;;;;8.77;1.17;;;14.30;99.90;;;;;;5106533;28;20443;-74
2022/11/02 12:19:50;;;;;;;6.97;1.00;;;14.20;99.90;;;;;;5089970;28;20510;-74
2022/11/02 12:22:35;;;;;;;10.32;1.30;;;14.20;99.90;;;;;;5103503;28;20408;-74
2022/11/02 12:25:19;;;;;;;9.15;1.30;;;14.10;99.90;;;;;;5120227;28;20434;-74
2022/11/02 12:27:51;;;;;;;10.23;1.70;;;14.20;99.90;;;;;;5092526;28;20430;-74
2022/11/02 12:30:21;;;;;;;6.82;0.90;;;14.10;99.90;;;;;;5089053;28;20435;-74
2022/11/02 12:33:03;;;;;;;8.65;1.13;;;14.20;99.90;;;;;;5119563;28;20411;-74
2022/11/02 12:35:39;;;;;;;7.00;1.10;;;14.10;99.90;;;;;;5127084;28;20398;-74
2022/11/02 12:38:26;;;;;;;6.80;0.80;;;14.10;99.90;;;;;;5091507;28;20416;-74
2022/11/02 12:41:31;;;;;;;9.00;1.38;;;14.10;99.90;;;;;;5120077;28;20451;-74
2022/11/02 12:44:21;;;;;;;7.63;1.17;;;14.20;99.90;;;;;;5089735;28;20920;-74
2022/11/02 12:47:04;;;;;;;8.25;1.05;;;14.20;99.90;;;;;;5102654;28;20436;-74
2022/11/02 12:50:00;;;;;;;10.20;1.02;;;14.20;99.90;;;;;;5100981;28;20552;-74
2022/11/02 12:52:31;;;;;;;6.60;0.90;;;14.30;99.90;;;;;;5129669;27;20394;-74
2022/11/02 12:54:59;;;;;;;6.53;1.20;;;14.40;99.90;;;;;;5113520;27;20407;-74
2022/11/02 12:57:29;;;;;;;8.98;0.80;;;14.40;99.90;;;;;;5123921;27;20855;-74
2022/11/02 13:00:00;;;;;;;7.50;1.10;;;14.40;99.90;;;;;;5113694;27;20978;-74
2022/11/02 13:02:48;;;;;;;6.65;0.80;;;14.40;99.90;;;;;;5131338;27;20394;-74
2022/11/02 13:05:17;;;;;;;9.73;1.27;;;14.50;99.90;;;;;;5096014;27;20409;-74
2022/11/02 13:08:07;;;;;;;8.32;0.88;;;14.70;99.90;;;;;;5128356;27;20412;-74
2022/11/02 13:10:41;;;;;;;6.23;1.10;;;15.50;99.90;;;;;;5126910;27;20487;-74
2022/11/02 13:13:13;;;;;;;8.30;1.10;;;16.50;99.90;;;;;;5109771;27;20745;-74
2022/11/02 13:15:39;;;;;;;7.13;1.00;;;16.90;99.90;;;;;;5131448;27;20491;-74
2022/11/02 13:18:30;;;;;;;7.55;1.13;;;16.50;99.90;;;;;;5113733;27;20398;-74